sensor_id;sensor_type;location;lat;lon;timestamp;temperature;humidity
262;DHT22;114;48.260;10.988;2023-08-30T00:00:51;12.00;1.00
262;DHT22;114;48.260;10.988;2023-08-30T00:03:19;11.90;1.00
262;DHT22;114;48.260;10.988;2023-08-30T00:05:45;12.00;1.00
262;DHT22;114;48.260;10.988;2023-08-30T00:08:11;12.00;1.00
262;DHT22;114;48.260;10.988;2023-08-30T00:10:39;12.00;1.00
262;DHT22;114;48.260;10.988;2023-08-30T00:13:04;11.90;1.00
262;DHT22;114;48.260;10.988;2023-08-30T00:15:30;12.00;1.00
262;DHT22;114;48.260;10.988;2023-08-30T00:17:56;12.00;1.00
262;DHT22;114;48.260;10.988;2023-08-30T00:20:22;12.00;1.00
262;DHT22;114;48.260;10.988;2023-08-30T00:22:48;11.90;1.00
262;DHT22;114;48.260;10.988;2023-08-30T00:25:14;11.90;1.00
262;DHT22;114;48.260;10.988;2023-08-30T00:27:41;11.90;1.00
262;DHT22;114;48.260;10.988;2023-08-30T00:30:08;11.90;1.00
262;DHT22;114;48.260;10.988;2023-08-30T00:32:35;11.90;1.00
262;DHT22;114;48.260;10.988;2023-08-30T00:35:01;11.90;1.00
262;DHT22;114;48.260;10.988;2023-08-30T00:37:26;11.90;1.00
262;DHT22;114;48.260;10.988;2023-08-30T00:39:53;11.90;1.00
262;DHT22;114;48.260;10.988;2023-08-30T00:42:19;11.90;1.00
262;DHT22;114;48.260;10.988;2023-08-30T00:44:45;11.90;1.00
262;DHT22;114;48.260;10.988;2023-08-30T00:47:10;11.90;1.00
262;DHT22;114;48.260;10.988;2023-08-30T00:49:37;11.80;1.00
262;DHT22;114;48.260;10.988;2023-08-30T00:52:06;11.90;1.00
262;DHT22;114;48.260;10.988;2023-08-30T00:54:33;11.90;1.00
262;DHT22;114;48.260;10.988;2023-08-30T00:57:00;11.80;1.00
262;DHT22;114;48.260;10.988;2023-08-30T00:59:27;11.80;1.00
262;DHT22;114;48.260;10.988;2023-08-30T01:01:55;11.80;1.00
262;DHT22;114;48.260;10.988;2023-08-30T01:04:20;11.80;1.00
262;DHT22;114;48.260;10.988;2023-08-30T01:06:47;11.80;1.00
262;DHT22;114;48.260;10.988;2023-08-30T01:09:14;11.80;1.00
262;DHT22;114;48.260;10.988;2023-08-30T01:14:34;11.80;1.00
262;DHT22;114;48.260;10.988;2023-08-30T01:17:04;11.80;1.00
262;DHT22;114;48.260;10.988;2023-08-30T01:19:56;11.80;1.00
262;DHT22;114;48.260;10.988;2023-08-30T01:27:52;11.80;1.00
262;DHT22;114;48.260;10.988;2023-08-30T01:30:21;11.70;1.00
262;DHT22;114;48.260;10.988;2023-08-30T01:32:48;11.70;1.00
262;DHT22;114;48.260;10.988;2023-08-30T01:35:15;11.70;1.00
262;DHT22;114;48.260;10.988;2023-08-30T01:37:45;11.70;1.00
262;DHT22;114;48.260;10.988;2023-08-30T01:40:13;11.80;1.00
262;DHT22;114;48.260;10.988;2023-08-30T01:42:40;11.80;1.00
262;DHT22;114;48.260;10.988;2023-08-30T01:45:08;11.80;1.00
262;DHT22;114;48.260;10.988;2023-08-30T01:47:35;11.80;1.00
262;DHT22;114;48.260;10.988;2023-08-30T01:50:02;11.80;1.00
262;DHT22;114;48.260;10.988;2023-08-30T01:52:30;11.80;1.00
262;DHT22;114;48.260;10.988;2023-08-30T01:54:58;11.80;1.00
262;DHT22;114;48.260;10.988;2023-08-30T01:57:25;11.70;1.00
262;DHT22;114;48.260;10.988;2023-08-30T01:59:51;11.80;1.00
262;DHT22;114;48.260;10.988;2023-08-30T02:02:17;11.80;1.00
262;DHT22;114;48.260;10.988;2023-08-30T02:04:43;11.80;1.00
262;DHT22;114;48.260;10.988;2023-08-30T02:07:17;11.80;1.00
262;DHT22;114;48.260;10.988;2023-08-30T02:09:50;11.80;1.00
262;DHT22;114;48.260;10.988;2023-08-30T02:12:22;11.80;1.00
262;DHT22;114;48.260;10.988;2023-08-30T02:14:50;11.80;1.00
262;DHT22;114;48.260;10.988;2023-08-30T02:17:17;11.80;1.00
262;DHT22;114;48.260;10.988;2023-08-30T02:19:44;11.80;1.00
262;DHT22;114;48.260;10.988;2023-08-30T02:22:10;11.80;1.00
262;DHT22;114;48.260;10.988;2023-08-30T02:24:36;11.80;1.00
262;DHT22;114;48.260;10.988;2023-08-30T02:27:02;11.80;1.00
262;DHT22;114;48.260;10.988;2023-08-30T02:29:28;11.80;1.00
262;DHT22;114;48.260;10.988;2023-08-30T02:31:53;11.80;1.00
262;DHT22;114;48.260;10.988;2023-08-30T02:34:20;11.80;1.00
262;DHT22;114;48.260;10.988;2023-08-30T02:36:46;11.70;1.00
262;DHT22;114;48.260;10.988;2023-08-30T02:39:14;11.80;1.00
262;DHT22;114;48.260;10.988;2023-08-30T02:41:39;11.80;1.00
262;DHT22;114;48.260;10.988;2023-08-30T02:44:08;11.80;1.00
262;DHT22;114;48.260;10.988;2023-08-30T02:46:33;11.70;1.00
262;DHT22;114;48.260;10.988;2023-08-30T02:48:59;11.80;1.00
262;DHT22;114;48.260;10.988;2023-08-30T02:51:25;11.80;1.00
262;DHT22;114;48.260;10.988;2023-08-30T02:53:51;11.80;1.00
262;DHT22;114;48.260;10.988;2023-08-30T02:56:16;11.70;1.00
262;DHT22;114;48.260;10.988;2023-08-30T02:58:42;11.70;1.00
262;DHT22;114;48.260;10.988;2023-08-30T03:01:08;11.70;1.00
262;DHT22;114;48.260;10.988;2023-08-30T03:03:34;11.70;1.00
262;DHT22;114;48.260;10.988;2023-08-30T03:06:01;11.70;1.00
262;DHT22;114;48.260;10.988;2023-08-30T03:08:28;11.70;1.00
262;DHT22;114;48.260;10.988;2023-08-30T03:10:54;11.70;1.00
262;DHT22;114;48.260;10.988;2023-08-30T03:13:20;11.70;1.00
262;DHT22;114;48.260;10.988;2023-08-30T03:15:45;11.70;1.00
262;DHT22;114;48.260;10.988;2023-08-30T03:18:11;11.70;1.00
262;DHT22;114;48.260;10.988;2023-08-30T03:20:37;11.70;1.00
262;DHT22;114;48.260;10.988;2023-08-30T03:23:03;11.70;1.00
262;DHT22;114;48.260;10.988;2023-08-30T03:25:29;11.60;1.00
262;DHT22;114;48.260;10.988;2023-08-30T03:27:55;11.60;1.00
262;DHT22;114;48.260;10.988;2023-08-30T03:30:21;11.60;1.00
262;DHT22;114;48.260;10.988;2023-08-30T03:32:47;11.70;1.00
262;DHT22;114;48.260;10.988;2023-08-30T03:35:12;11.70;1.00
262;DHT22;114;48.260;10.988;2023-08-30T03:37:40;11.70;1.00
262;DHT22;114;48.260;10.988;2023-08-30T03:40:06;11.70;1.00
262;DHT22;114;48.260;10.988;2023-08-30T03:42:32;11.70;1.00
262;DHT22;114;48.260;10.988;2023-08-30T03:44:58;11.70;1.00
262;DHT22;114;48.260;10.988;2023-08-30T03:47:24;11.60;1.00
262;DHT22;114;48.260;10.988;2023-08-30T03:49:50;11.70;1.00
262;DHT22;114;48.260;10.988;2023-08-30T03:52:16;11.70;1.00
262;DHT22;114;48.260;10.988;2023-08-30T03:54:42;11.80;1.00
262;DHT22;114;48.260;10.988;2023-08-30T03:57:08;11.90;1.00
262;DHT22;114;48.260;10.988;2023-08-30T03:59:33;12.20;1.00
262;DHT22;114;48.260;10.988;2023-08-30T04:01:59;12.40;1.00
262;DHT22;114;48.260;10.988;2023-08-30T04:04:25;12.70;1.00
262;DHT22;114;48.260;10.988;2023-08-30T04:06:51;13.00;1.00
262;DHT22;114;48.260;10.988;2023-08-30T04:09:17;13.10;1.00
262;DHT22;114;48.260;10.988;2023-08-30T04:11:43;12.60;1.00
262;DHT22;114;48.260;10.988;2023-08-30T04:14:09;12.50;1.00
262;DHT22;114;48.260;10.988;2023-08-30T04:16:35;12.60;1.00
262;DHT22;114;48.260;10.988;2023-08-30T04:19:01;12.80;1.00
262;DHT22;114;48.260;10.988;2023-08-30T04:21:26;12.70;1.00
262;DHT22;114;48.260;10.988;2023-08-30T04:23:52;12.60;1.00
262;DHT22;114;48.260;10.988;2023-08-30T04:26:18;13.30;1.00
262;DHT22;114;48.260;10.988;2023-08-30T04:28:44;12.90;1.00
262;DHT22;114;48.260;10.988;2023-08-30T04:31:10;13.40;1.00
262;DHT22;114;48.260;10.988;2023-08-30T04:33:36;13.00;1.00
262;DHT22;114;48.260;10.988;2023-08-30T04:36:01;12.80;1.00
262;DHT22;114;48.260;10.988;2023-08-30T04:38:29;12.20;1.00
262;DHT22;114;48.260;10.988;2023-08-30T04:40:58;11.80;1.00
262;DHT22;114;48.260;10.988;2023-08-30T04:43:28;11.70;1.00
262;DHT22;114;48.260;10.988;2023-08-30T04:45:54;12.00;1.00
262;DHT22;114;48.260;10.988;2023-08-30T04:48:19;11.80;1.00
262;DHT22;114;48.260;10.988;2023-08-30T04:50:45;11.60;1.00
262;DHT22;114;48.260;10.988;2023-08-30T04:53:11;11.50;1.00
262;DHT22;114;48.260;10.988;2023-08-30T04:55:37;11.60;1.00
262;DHT22;114;48.260;10.988;2023-08-30T04:58:02;11.50;1.00
262;DHT22;114;48.260;10.988;2023-08-30T05:00:28;11.60;1.00
262;DHT22;114;48.260;10.988;2023-08-30T05:02:54;11.60;1.00
262;DHT22;114;48.260;10.988;2023-08-30T05:05:20;11.50;1.00
262;DHT22;114;48.260;10.988;2023-08-30T05:07:45;12.90;1.00
262;DHT22;114;48.260;10.988;2023-08-30T05:10:11;12.30;1.00
262;DHT22;114;48.260;10.988;2023-08-30T05:12:38;12.30;1.00
262;DHT22;114;48.260;10.988;2023-08-30T05:15:04;12.30;1.00
262;DHT22;114;48.260;10.988;2023-08-30T05:17:30;12.30;1.00
262;DHT22;114;48.260;10.988;2023-08-30T05:19:55;12.50;1.00
262;DHT22;114;48.260;10.988;2023-08-30T05:22:21;12.50;1.00
262;DHT22;114;48.260;10.988;2023-08-30T05:24:47;12.50;1.00
262;DHT22;114;48.260;10.988;2023-08-30T05:27:14;12.50;1.00
262;DHT22;114;48.260;10.988;2023-08-30T05:29:40;12.40;1.00
262;DHT22;114;48.260;10.988;2023-08-30T05:32:06;12.30;1.00
262;DHT22;114;48.260;10.988;2023-08-30T05:34:32;12.30;1.00
262;DHT22;114;48.260;10.988;2023-08-30T05:36:57;12.40;1.00
262;DHT22;114;48.260;10.988;2023-08-30T05:39:23;12.40;1.00
262;DHT22;114;48.260;10.988;2023-08-30T05:41:49;12.40;1.00
262;DHT22;114;48.260;10.988;2023-08-30T05:44:14;12.30;1.00
262;DHT22;114;48.260;10.988;2023-08-30T05:46:40;12.30;1.00
262;DHT22;114;48.260;10.988;2023-08-30T05:49:06;12.50;1.00
262;DHT22;114;48.260;10.988;2023-08-30T05:51:32;12.50;1.00
262;DHT22;114;48.260;10.988;2023-08-30T05:53:57;12.60;1.00
262;DHT22;114;48.260;10.988;2023-08-30T05:56:23;12.80;1.00
262;DHT22;114;48.260;10.988;2023-08-30T05:58:50;12.90;1.00
262;DHT22;114;48.260;10.988;2023-08-30T06:01:18;12.80;1.00
262;DHT22;114;48.260;10.988;2023-08-30T06:03:44;12.70;1.00
262;DHT22;114;48.260;10.988;2023-08-30T06:06:11;12.80;1.00
262;DHT22;114;48.260;10.988;2023-08-30T06:08:37;12.80;1.00
262;DHT22;114;48.260;10.988;2023-08-30T06:11:02;12.90;1.00
262;DHT22;114;48.260;10.988;2023-08-30T06:13:28;12.80;1.00
262;DHT22;114;48.260;10.988;2023-08-30T06:15:54;12.80;1.00
262;DHT22;114;48.260;10.988;2023-08-30T06:18:19;12.60;1.00
262;DHT22;114;48.260;10.988;2023-08-30T06:20:46;12.60;1.00
262;DHT22;114;48.260;10.988;2023-08-30T06:23:13;12.70;1.00
262;DHT22;114;48.260;10.988;2023-08-30T06:25:39;12.60;1.00
262;DHT22;114;48.260;10.988;2023-08-30T06:28:05;12.70;1.00
262;DHT22;114;48.260;10.988;2023-08-30T06:30:30;12.70;1.00
262;DHT22;114;48.260;10.988;2023-08-30T06:32:57;12.70;1.00
262;DHT22;114;48.260;10.988;2023-08-30T06:35:23;12.70;1.00
262;DHT22;114;48.260;10.988;2023-08-30T06:37:49;12.70;1.00
262;DHT22;114;48.260;10.988;2023-08-30T06:40:15;12.80;1.00
262;DHT22;114;48.260;10.988;2023-08-30T06:42:41;12.80;1.00
262;DHT22;114;48.260;10.988;2023-08-30T06:45:07;12.80;1.00
262;DHT22;114;48.260;10.988;2023-08-30T06:47:34;12.90;1.00
262;DHT22;114;48.260;10.988;2023-08-30T06:50:00;13.00;1.00
262;DHT22;114;48.260;10.988;2023-08-30T06:52:26;13.00;1.00
262;DHT22;114;48.260;10.988;2023-08-30T06:54:52;13.10;1.00
262;DHT22;114;48.260;10.988;2023-08-30T06:57:18;13.10;1.00
262;DHT22;114;48.260;10.988;2023-08-30T06:59:44;13.20;1.00
262;DHT22;114;48.260;10.988;2023-08-30T07:02:09;13.30;1.00
262;DHT22;114;48.260;10.988;2023-08-30T07:04:35;13.30;1.00
262;DHT22;114;48.260;10.988;2023-08-30T07:07:01;13.40;1.00
262;DHT22;114;48.260;10.988;2023-08-30T07:09:27;13.40;1.00
262;DHT22;114;48.260;10.988;2023-08-30T07:11:57;13.50;1.00
262;DHT22;114;48.260;10.988;2023-08-30T07:14:24;13.60;1.00
262;DHT22;114;48.260;10.988;2023-08-30T07:16:53;13.60;1.00
262;DHT22;114;48.260;10.988;2023-08-30T07:19:19;13.70;1.00
262;DHT22;114;48.260;10.988;2023-08-30T07:21:45;13.80;1.00
262;DHT22;114;48.260;10.988;2023-08-30T07:24:11;13.80;1.00
262;DHT22;114;48.260;10.988;2023-08-30T07:26:37;14.00;1.00
262;DHT22;114;48.260;10.988;2023-08-30T07:29:06;14.20;1.00
262;DHT22;114;48.260;10.988;2023-08-30T07:31:32;14.40;1.00
262;DHT22;114;48.260;10.988;2023-08-30T07:33:58;14.40;1.00
262;DHT22;114;48.260;10.988;2023-08-30T07:36:26;14.60;1.00
262;DHT22;114;48.260;10.988;2023-08-30T07:38:53;14.60;1.00
262;DHT22;114;48.260;10.988;2023-08-30T07:41:18;14.70;1.00
262;DHT22;114;48.260;10.988;2023-08-30T07:43:44;14.80;1.00
262;DHT22;114;48.260;10.988;2023-08-30T07:46:10;15.10;1.00
262;DHT22;114;48.260;10.988;2023-08-30T07:48:36;14.90;1.00
262;DHT22;114;48.260;10.988;2023-08-30T07:51:02;14.90;1.00
262;DHT22;114;48.260;10.988;2023-08-30T07:53:27;15.40;1.00
262;DHT22;114;48.260;10.988;2023-08-30T07:55:53;15.50;1.00
262;DHT22;114;48.260;10.988;2023-08-30T07:58:19;15.40;1.00
262;DHT22;114;48.260;10.988;2023-08-30T08:00:46;15.50;1.00
262;DHT22;114;48.260;10.988;2023-08-30T08:03:15;15.40;1.00
262;DHT22;114;48.260;10.988;2023-08-30T08:05:41;15.60;1.00
262;DHT22;114;48.260;10.988;2023-08-30T08:08:07;15.40;1.00
262;DHT22;114;48.260;10.988;2023-08-30T08:10:33;15.30;1.00
262;DHT22;114;48.260;10.988;2023-08-30T08:12:59;15.30;1.00
262;DHT22;114;48.260;10.988;2023-08-30T08:15:25;15.30;1.00
262;DHT22;114;48.260;10.988;2023-08-30T08:17:51;15.10;1.00
262;DHT22;114;48.260;10.988;2023-08-30T08:20:18;15.10;1.00
262;DHT22;114;48.260;10.988;2023-08-30T08:22:44;15.10;1.00
262;DHT22;114;48.260;10.988;2023-08-30T08:25:11;15.00;1.00
262;DHT22;114;48.260;10.988;2023-08-30T08:27:37;15.30;1.00
262;DHT22;114;48.260;10.988;2023-08-30T08:30:04;15.70;1.00
262;DHT22;114;48.260;10.988;2023-08-30T08:32:30;16.00;1.00
262;DHT22;114;48.260;10.988;2023-08-30T08:34:57;16.00;1.00
262;DHT22;114;48.260;10.988;2023-08-30T08:37:23;16.00;1.00
262;DHT22;114;48.260;10.988;2023-08-30T08:39:48;16.10;1.00
262;DHT22;114;48.260;10.988;2023-08-30T08:42:19;16.20;1.00
262;DHT22;114;48.260;10.988;2023-08-30T08:44:50;16.40;1.00
262;DHT22;114;48.260;10.988;2023-08-30T08:47:20;16.50;1.00
262;DHT22;114;48.260;10.988;2023-08-30T08:49:47;16.30;1.00
262;DHT22;114;48.260;10.988;2023-08-30T08:52:14;16.50;1.00
262;DHT22;114;48.260;10.988;2023-08-30T08:54:40;16.60;1.00
262;DHT22;114;48.260;10.988;2023-08-30T08:57:07;16.60;1.00
262;DHT22;114;48.260;10.988;2023-08-30T08:59:33;16.60;1.00
262;DHT22;114;48.260;10.988;2023-08-30T09:02:02;16.30;1.00
262;DHT22;114;48.260;10.988;2023-08-30T09:04:30;16.40;1.00
262;DHT22;114;48.260;10.988;2023-08-30T09:06:58;16.60;1.00
262;DHT22;114;48.260;10.988;2023-08-30T09:09:25;16.60;1.00
262;DHT22;114;48.260;10.988;2023-08-30T09:11:51;16.90;1.00
262;DHT22;114;48.260;10.988;2023-08-30T09:14:18;16.80;1.00
262;DHT22;114;48.260;10.988;2023-08-30T09:17:01;16.70;1.00
262;DHT22;114;48.260;10.988;2023-08-30T09:19:27;17.00;1.00
262;DHT22;114;48.260;10.988;2023-08-30T09:21:54;17.60;1.00
262;DHT22;114;48.260;10.988;2023-08-30T09:24:20;17.80;1.00
262;DHT22;114;48.260;10.988;2023-08-30T09:26:51;18.00;1.00
262;DHT22;114;48.260;10.988;2023-08-30T09:29:18;17.90;1.00
262;DHT22;114;48.260;10.988;2023-08-30T09:31:44;17.60;1.00
262;DHT22;114;48.260;10.988;2023-08-30T09:34:10;17.40;1.00
262;DHT22;114;48.260;10.988;2023-08-30T09:36:43;17.20;1.00
262;DHT22;114;48.260;10.988;2023-08-30T09:39:12;17.30;1.00
262;DHT22;114;48.260;10.988;2023-08-30T09:41:50;17.20;1.00
262;DHT22;114;48.260;10.988;2023-08-30T09:44:20;17.40;1.00
262;DHT22;114;48.260;10.988;2023-08-30T09:46:50;17.80;1.00
262;DHT22;114;48.260;10.988;2023-08-30T09:49:22;17.90;1.00
262;DHT22;114;48.260;10.988;2023-08-30T09:51:51;18.20;1.00
262;DHT22;114;48.260;10.988;2023-08-30T09:54:21;18.30;1.00
262;DHT22;114;48.260;10.988;2023-08-30T09:56:47;18.50;1.00
262;DHT22;114;48.260;10.988;2023-08-30T09:59:15;19.00;1.00
262;DHT22;114;48.260;10.988;2023-08-30T10:01:46;18.80;1.00
262;DHT22;114;48.260;10.988;2023-08-30T10:04:15;18.60;1.00
262;DHT22;114;48.260;10.988;2023-08-30T10:06:41;18.90;1.00
262;DHT22;114;48.260;10.988;2023-08-30T10:09:08;19.20;1.00
262;DHT22;114;48.260;10.988;2023-08-30T10:11:38;18.60;1.00
262;DHT22;114;48.260;10.988;2023-08-30T10:14:08;18.40;1.00
262;DHT22;114;48.260;10.988;2023-08-30T10:16:43;18.30;1.00
262;DHT22;114;48.260;10.988;2023-08-30T10:19:26;18.20;1.00
262;DHT22;114;48.260;10.988;2023-08-30T10:22:04;18.60;1.00
262;DHT22;114;48.260;10.988;2023-08-30T10:24:44;19.10;1.00
262;DHT22;114;48.260;10.988;2023-08-30T10:27:13;19.30;1.00
262;DHT22;114;48.260;10.988;2023-08-30T10:29:41;19.40;1.00
262;DHT22;114;48.260;10.988;2023-08-30T10:32:07;19.20;1.00
262;DHT22;114;48.260;10.988;2023-08-30T10:34:34;19.00;1.00
262;DHT22;114;48.260;10.988;2023-08-30T10:37:03;18.60;1.00
262;DHT22;114;48.260;10.988;2023-08-30T10:39:39;18.20;1.00
262;DHT22;114;48.260;10.988;2023-08-30T10:42:15;17.90;1.00
262;DHT22;114;48.260;10.988;2023-08-30T10:44:48;17.90;1.00
262;DHT22;114;48.260;10.988;2023-08-30T10:47:32;17.50;1.00
262;DHT22;114;48.260;10.988;2023-08-30T10:50:05;17.30;1.00
262;DHT22;114;48.260;10.988;2023-08-30T10:52:31;17.10;1.00
262;DHT22;114;48.260;10.988;2023-08-30T10:55:13;16.80;1.00
262;DHT22;114;48.260;10.988;2023-08-30T10:57:44;16.50;1.00
262;DHT22;114;48.260;10.988;2023-08-30T11:00:23;16.40;1.00
262;DHT22;114;48.260;10.988;2023-08-30T11:02:50;16.20;1.00
262;DHT22;114;48.260;10.988;2023-08-30T11:05:17;16.20;1.00
262;DHT22;114;48.260;10.988;2023-08-30T11:07:46;16.20;1.00
262;DHT22;114;48.260;10.988;2023-08-30T11:10:12;16.20;1.00
262;DHT22;114;48.260;10.988;2023-08-30T11:12:41;16.20;1.00
262;DHT22;114;48.260;10.988;2023-08-30T11:15:09;16.20;1.00
262;DHT22;114;48.260;10.988;2023-08-30T11:17:35;16.30;1.00
262;DHT22;114;48.260;10.988;2023-08-30T11:20:08;16.20;1.00
262;DHT22;114;48.260;10.988;2023-08-30T11:22:37;16.30;1.00
262;DHT22;114;48.260;10.988;2023-08-30T11:25:03;16.60;1.00
262;DHT22;114;48.260;10.988;2023-08-30T11:27:29;16.70;1.00
262;DHT22;114;48.260;10.988;2023-08-30T11:29:59;16.90;1.00
262;DHT22;114;48.260;10.988;2023-08-30T11:32:26;17.10;1.00
262;DHT22;114;48.260;10.988;2023-08-30T11:35:00;17.20;1.00
262;DHT22;114;48.260;10.988;2023-08-30T11:37:27;17.50;1.00
262;DHT22;114;48.260;10.988;2023-08-30T11:39:56;17.90;1.00
262;DHT22;114;48.260;10.988;2023-08-30T11:42:22;18.10;1.00
262;DHT22;114;48.260;10.988;2023-08-30T11:44:50;18.30;1.00
262;DHT22;114;48.260;10.988;2023-08-30T11:47:22;18.50;1.00
262;DHT22;114;48.260;10.988;2023-08-30T11:49:49;18.50;1.00
262;DHT22;114;48.260;10.988;2023-08-30T11:52:18;18.70;1.00
262;DHT22;114;48.260;10.988;2023-08-30T11:54:47;18.90;1.00
262;DHT22;114;48.260;10.988;2023-08-30T11:57:13;19.20;1.00
262;DHT22;114;48.260;10.988;2023-08-30T11:59:39;19.20;1.00
262;DHT22;114;48.260;10.988;2023-08-30T12:02:06;19.30;1.00
262;DHT22;114;48.260;10.988;2023-08-30T12:04:32;19.80;1.00
262;DHT22;114;48.260;10.988;2023-08-30T12:06:58;20.10;1.00
262;DHT22;114;48.260;10.988;2023-08-30T12:09:30;21.00;1.00
262;DHT22;114;48.260;10.988;2023-08-30T12:12:05;21.00;1.00
262;DHT22;114;48.260;10.988;2023-08-30T12:14:38;21.30;1.00
262;DHT22;114;48.260;10.988;2023-08-30T12:17:05;21.40;1.00
262;DHT22;114;48.260;10.988;2023-08-30T12:19:34;21.20;1.00
262;DHT22;114;48.260;10.988;2023-08-30T12:22:04;20.70;1.00
262;DHT22;114;48.260;10.988;2023-08-30T12:24:44;19.90;1.00
262;DHT22;114;48.260;10.988;2023-08-30T12:27:10;19.90;1.00
262;DHT22;114;48.260;10.988;2023-08-30T12:29:36;20.20;1.00
262;DHT22;114;48.260;10.988;2023-08-30T12:32:02;20.60;1.00
262;DHT22;114;48.260;10.988;2023-08-30T12:34:28;20.60;1.00
262;DHT22;114;48.260;10.988;2023-08-30T12:36:54;20.80;1.00
262;DHT22;114;48.260;10.988;2023-08-30T12:39:20;21.40;1.00
262;DHT22;114;48.260;10.988;2023-08-30T12:41:46;21.20;1.00
262;DHT22;114;48.260;10.988;2023-08-30T12:44:12;20.80;1.00
262;DHT22;114;48.260;10.988;2023-08-30T12:46:38;20.40;1.00
262;DHT22;114;48.260;10.988;2023-08-30T12:49:04;20.00;1.00
262;DHT22;114;48.260;10.988;2023-08-30T12:51:30;20.10;1.00
262;DHT22;114;48.260;10.988;2023-08-30T12:53:56;20.20;1.00
262;DHT22;114;48.260;10.988;2023-08-30T12:56:21;20.40;1.00
262;DHT22;114;48.260;10.988;2023-08-30T12:58:47;20.90;1.00
262;DHT22;114;48.260;10.988;2023-08-30T13:01:14;20.90;1.00
262;DHT22;114;48.260;10.988;2023-08-30T13:03:40;20.50;1.00
262;DHT22;114;48.260;10.988;2023-08-30T13:06:05;20.30;1.00
262;DHT22;114;48.260;10.988;2023-08-30T13:08:31;20.40;1.00
262;DHT22;114;48.260;10.988;2023-08-30T13:10:59;20.30;1.00
262;DHT22;114;48.260;10.988;2023-08-30T13:13:25;20.00;1.00
262;DHT22;114;48.260;10.988;2023-08-30T13:15:51;19.90;1.00
262;DHT22;114;48.260;10.988;2023-08-30T13:18:17;19.60;1.00
262;DHT22;114;48.260;10.988;2023-08-30T13:20:43;19.50;1.00
262;DHT22;114;48.260;10.988;2023-08-30T13:23:11;19.30;1.00
262;DHT22;114;48.260;10.988;2023-08-30T13:25:41;19.00;1.00
262;DHT22;114;48.260;10.988;2023-08-30T13:28:07;19.00;1.00
262;DHT22;114;48.260;10.988;2023-08-30T13:30:33;19.00;1.00
262;DHT22;114;48.260;10.988;2023-08-30T13:32:59;19.00;1.00
262;DHT22;114;48.260;10.988;2023-08-30T13:35:25;18.90;1.00
262;DHT22;114;48.260;10.988;2023-08-30T13:37:52;18.80;1.00
262;DHT22;114;48.260;10.988;2023-08-30T13:40:18;18.90;1.00
262;DHT22;114;48.260;10.988;2023-08-30T13:42:44;19.50;1.00
262;DHT22;114;48.260;10.988;2023-08-30T13:45:11;19.80;1.00
262;DHT22;114;48.260;10.988;2023-08-30T13:47:38;19.80;1.00
262;DHT22;114;48.260;10.988;2023-08-30T13:50:05;19.50;1.00
262;DHT22;114;48.260;10.988;2023-08-30T13:52:31;19.60;1.00
262;DHT22;114;48.260;10.988;2023-08-30T13:54:57;19.70;1.00
262;DHT22;114;48.260;10.988;2023-08-30T13:57:22;19.60;1.00
262;DHT22;114;48.260;10.988;2023-08-30T13:59:48;19.40;1.00
262;DHT22;114;48.260;10.988;2023-08-30T14:02:14;19.00;1.00
262;DHT22;114;48.260;10.988;2023-08-30T14:04:39;18.80;1.00
262;DHT22;114;48.260;10.988;2023-08-30T14:07:05;18.70;1.00
262;DHT22;114;48.260;10.988;2023-08-30T14:09:32;18.50;1.00
262;DHT22;114;48.260;10.988;2023-08-30T14:11:58;18.40;1.00
262;DHT22;114;48.260;10.988;2023-08-30T14:14:24;18.40;1.00
262;DHT22;114;48.260;10.988;2023-08-30T14:16:49;18.30;1.00
262;DHT22;114;48.260;10.988;2023-08-30T14:19:15;18.10;1.00
262;DHT22;114;48.260;10.988;2023-08-30T14:21:41;18.00;1.00
262;DHT22;114;48.260;10.988;2023-08-30T14:24:07;17.80;1.00
262;DHT22;114;48.260;10.988;2023-08-30T14:26:33;17.80;1.00
262;DHT22;114;48.260;10.988;2023-08-30T14:28:59;17.70;1.00
262;DHT22;114;48.260;10.988;2023-08-30T14:31:24;17.70;1.00
262;DHT22;114;48.260;10.988;2023-08-30T14:33:54;17.70;1.00
262;DHT22;114;48.260;10.988;2023-08-30T14:36:22;17.70;1.00
262;DHT22;114;48.260;10.988;2023-08-30T14:38:48;17.70;1.00
262;DHT22;114;48.260;10.988;2023-08-30T14:41:14;17.90;1.00
262;DHT22;114;48.260;10.988;2023-08-30T14:43:42;17.90;1.00
262;DHT22;114;48.260;10.988;2023-08-30T14:46:08;17.90;1.00
262;DHT22;114;48.260;10.988;2023-08-30T14:48:34;17.90;1.00
262;DHT22;114;48.260;10.988;2023-08-30T14:51:00;17.90;1.00
262;DHT22;114;48.260;10.988;2023-08-30T14:53:27;18.00;1.00
262;DHT22;114;48.260;10.988;2023-08-30T14:55:53;18.10;1.00
262;DHT22;114;48.260;10.988;2023-08-30T14:58:21;18.40;1.00
262;DHT22;114;48.260;10.988;2023-08-30T15:00:49;18.40;1.00
262;DHT22;114;48.260;10.988;2023-08-30T15:03:16;18.50;1.00
262;DHT22;114;48.260;10.988;2023-08-30T15:05:42;18.70;1.00
262;DHT22;114;48.260;10.988;2023-08-30T15:08:08;18.80;1.00
262;DHT22;114;48.260;10.988;2023-08-30T15:10:34;18.90;1.00
262;DHT22;114;48.260;10.988;2023-08-30T15:12:59;18.80;1.00
262;DHT22;114;48.260;10.988;2023-08-30T15:15:25;18.70;1.00
262;DHT22;114;48.260;10.988;2023-08-30T15:17:51;18.70;1.00
262;DHT22;114;48.260;10.988;2023-08-30T15:20:17;19.00;1.00
262;DHT22;114;48.260;10.988;2023-08-30T15:22:42;19.60;1.00
262;DHT22;114;48.260;10.988;2023-08-30T15:25:08;20.20;1.00
262;DHT22;114;48.260;10.988;2023-08-30T15:27:34;20.40;1.00
262;DHT22;114;48.260;10.988;2023-08-30T15:30:00;20.10;1.00
262;DHT22;114;48.260;10.988;2023-08-30T15:32:26;20.10;1.00
262;DHT22;114;48.260;10.988;2023-08-30T15:34:54;19.80;1.00
262;DHT22;114;48.260;10.988;2023-08-30T15:37:20;19.60;1.00
262;DHT22;114;48.260;10.988;2023-08-30T15:39:46;19.30;1.00
262;DHT22;114;48.260;10.988;2023-08-30T15:42:13;19.20;1.00
262;DHT22;114;48.260;10.988;2023-08-30T15:44:39;19.30;1.00
262;DHT22;114;48.260;10.988;2023-08-30T15:47:06;19.70;1.00
262;DHT22;114;48.260;10.988;2023-08-30T15:49:32;20.20;1.00
262;DHT22;114;48.260;10.988;2023-08-30T15:51:58;20.10;1.00
262;DHT22;114;48.260;10.988;2023-08-30T15:54:24;20.10;1.00
262;DHT22;114;48.260;10.988;2023-08-30T15:56:50;19.90;1.00
262;DHT22;114;48.260;10.988;2023-08-30T15:59:15;19.70;1.00
262;DHT22;114;48.260;10.988;2023-08-30T16:01:42;19.60;1.00
262;DHT22;114;48.260;10.988;2023-08-30T16:04:08;19.50;1.00
262;DHT22;114;48.260;10.988;2023-08-30T16:06:33;19.50;1.00
262;DHT22;114;48.260;10.988;2023-08-30T16:09:00;19.60;1.00
262;DHT22;114;48.260;10.988;2023-08-30T16:11:25;19.60;1.00
262;DHT22;114;48.260;10.988;2023-08-30T16:13:51;19.50;1.00
262;DHT22;114;48.260;10.988;2023-08-30T16:16:17;19.10;1.00
262;DHT22;114;48.260;10.988;2023-08-30T16:18:43;19.00;1.00
262;DHT22;114;48.260;10.988;2023-08-30T16:21:09;18.90;1.00
262;DHT22;114;48.260;10.988;2023-08-30T16:23:34;18.90;1.00
262;DHT22;114;48.260;10.988;2023-08-30T16:26:00;18.80;1.00
262;DHT22;114;48.260;10.988;2023-08-30T16:28:26;18.80;1.00
262;DHT22;114;48.260;10.988;2023-08-30T16:30:58;18.70;1.00
262;DHT22;114;48.260;10.988;2023-08-30T16:33:25;18.70;1.00
262;DHT22;114;48.260;10.988;2023-08-30T16:35:51;18.60;1.00
262;DHT22;114;48.260;10.988;2023-08-30T16:38:17;18.50;1.00
262;DHT22;114;48.260;10.988;2023-08-30T16:40:43;18.40;1.00